sensor_id;sensor_type;location;lat;lon;timestamp;pressure;altitude;pressure_sealevel;temperature;humidity
39449;BME280;25151;45.566;9.382;2023-03-21T00:02:52;100056.38;;;19.29;55.74
39449;BME280;25151;45.566;9.382;2023-03-21T00:05:58;100063.53;;;19.30;55.66
39449;BME280;25151;45.566;9.382;2023-03-21T00:09:03;100054.44;;;19.26;55.71
39449;BME280;25151;45.566;9.382;2023-03-21T00:12:05;100056.78;;;19.27;55.63
39449;BME280;25151;45.566;9.382;2023-03-21T00:15:11;100057.56;;;19.28;55.63
39449;BME280;25151;45.566;9.382;2023-03-21T00:18:15;100050.41;;;19.27;55.67
39449;BME280;25151;45.566;9.382;2023-03-21T00:21:20;100046.47;;;19.24;55.63
39449;BME280;25151;45.566;9.382;2023-03-21T00:24:23;100039.31;;;19.23;55.55
39449;BME280;25151;45.566;9.382;2023-03-21T00:27:25;100047.28;;;19.25;55.66
39449;BME280;25151;45.566;9.382;2023-03-21T00:30:28;100051.28;;;19.24;55.67
39449;BME280;25151;45.566;9.382;2023-03-21T00:33:31;100046.03;;;19.26;55.60
39449;BME280;25151;45.566;9.382;2023-03-21T00:36:35;100038.53;;;19.23;55.74
39449;BME280;25151;45.566;9.382;2023-03-21T00:39:38;100038.53;;;19.23;55.71
39449;BME280;25151;45.566;9.382;2023-03-21T00:42:43;100028.19;;;19.20;55.64
39449;BME280;25151;45.566;9.382;2023-03-21T00:45:49;100032.59;;;19.21;55.66
39449;BME280;25151;45.566;9.382;2023-03-21T00:48:52;100029.78;;;19.21;55.72
39449;BME280;25151;45.566;9.382;2023-03-21T00:51:55;100020.72;;;19.16;55.70
39449;BME280;25151;45.566;9.382;2023-03-21T00:54:58;100014.31;;;19.16;55.68
39449;BME280;25151;45.566;9.382;2023-03-21T00:58:03;100020.25;;;19.18;55.77
39449;BME280;25151;45.566;9.382;2023-03-21T01:01:06;100005.13;;;19.15;55.71
39449;BME280;25151;45.566;9.382;2023-03-21T01:04:09;100004.34;;;19.15;55.69
39449;BME280;25151;45.566;9.382;2023-03-21T01:07:14;100001.47;;;19.19;55.69
39449;BME280;25151;45.566;9.382;2023-03-21T01:10:18;99995.97;;;19.15;55.71
39449;BME280;25151;45.566;9.382;2023-03-21T01:13:23;99993.63;;;19.13;55.84
39449;BME280;25151;45.566;9.382;2023-03-21T01:16:26;99992.38;;;19.14;55.74
39449;BME280;25151;45.566;9.382;2023-03-21T01:19:29;99999.53;;;19.15;55.68
39449;BME280;25151;45.566;9.382;2023-03-21T01:22:35;99991.59;;;19.14;55.80
39449;BME280;25151;45.566;9.382;2023-03-21T01:25:40;99984.53;;;19.09;55.80
39449;BME280;25151;45.566;9.382;2023-03-21T01:28:45;99987.66;;;19.11;55.77
39449;BME280;25151;45.566;9.382;2023-03-21T01:31:49;99981.28;;;19.11;55.74
39449;BME280;25151;45.566;9.382;2023-03-21T01:34:53;99976.47;;;19.11;55.69
39449;BME280;25151;45.566;9.382;2023-03-21T01:37:56;99973.69;;;19.11;55.87
39449;BME280;25151;45.566;9.382;2023-03-21T01:41:01;99973.34;;;19.09;55.80
39449;BME280;25151;45.566;9.382;2023-03-21T01:44:03;99972.50;;;19.12;55.84
39449;BME280;25151;45.566;9.382;2023-03-21T01:47:07;99966.97;;;19.09;55.81
39449;BME280;25151;45.566;9.382;2023-03-21T01:50:10;99954.97;;;19.08;55.97
39449;BME280;25151;45.566;9.382;2023-03-21T01:53:14;99962.94;;;19.10;55.86
39449;BME280;25151;45.566;9.382;2023-03-21T01:56:32;99956.56;;;19.09;55.78
39449;BME280;25151;45.566;9.382;2023-03-21T02:02:43;99948.63;;;19.08;55.92
39449;BME280;25151;45.566;9.382;2023-03-21T02:05:59;99952.56;;;19.10;55.79
39449;BME280;25151;45.566;9.382;2023-03-21T02:09:05;99952.63;;;19.07;55.76
39449;BME280;25151;45.566;9.382;2023-03-21T02:12:11;99945.47;;;19.06;55.91
39449;BME280;25151;45.566;9.382;2023-03-21T02:15:13;99947.84;;;19.07;55.88
39449;BME280;25151;45.566;9.382;2023-03-21T02:28:48;99935.09;;;19.06;55.84
39449;BME280;25151;45.566;9.382;2023-03-21T02:35:33;99936.66;;;19.07;55.85
39449;BME280;25151;45.566;9.382;2023-03-21T02:43:57;99932.38;;;19.03;55.83
39449;BME280;25151;45.566;9.382;2023-03-21T02:46:41;99927.56;;;19.03;55.93
39449;BME280;25151;45.566;9.382;2023-03-21T02:52:52;99918.41;;;19.03;55.88
39449;BME280;25151;45.566;9.382;2023-03-21T02:55:55;99909.56;;;19.04;56.08
39449;BME280;25151;45.566;9.382;2023-03-21T02:58:59;99902.09;;;19.01;55.83
39449;BME280;25151;45.566;9.382;2023-03-21T03:02:01;99910.47;;;19.01;55.86
39449;BME280;25151;45.566;9.382;2023-03-21T03:05:28;99912.47;;;19.01;55.97
39449;BME280;25151;45.566;9.382;2023-03-21T03:19:27;99912.03;;;19.02;55.83
39449;BME280;25151;45.566;9.382;2023-03-21T03:22:47;99898.13;;;18.99;55.81
39449;BME280;25151;45.566;9.382;2023-03-21T03:25:51;99910.00;;;19.03;55.81
39449;BME280;25151;45.566;9.382;2023-03-21T03:28:59;99910.53;;;18.98;55.75
39449;BME280;25151;45.566;9.382;2023-03-21T03:32:07;99909.22;;;19.02;55.82
39449;BME280;25151;45.566;9.382;2023-03-21T03:35:15;99900.47;;;19.00;55.80
39449;BME280;25151;45.566;9.382;2023-03-21T03:38:21;99901.38;;;18.97;55.83
39449;BME280;25151;45.566;9.382;2023-03-21T03:41:27;99898.59;;;18.97;55.90
39449;BME280;25151;45.566;9.382;2023-03-21T03:44:29;99893.78;;;18.98;55.80
39449;BME280;25151;45.566;9.382;2023-03-21T03:48:06;99902.09;;;19.01;55.85
39449;BME280;25151;45.566;9.382;2023-03-21T03:51:38;99894.56;;;18.98;55.65
39449;BME280;25151;45.566;9.382;2023-03-21T03:54:45;99888.59;;;18.96;55.79
39449;BME280;25151;45.566;9.382;2023-03-21T03:57:49;99893.00;;;18.97;55.75
39449;BME280;25151;45.566;9.382;2023-03-21T04:00:53;99888.97;;;18.98;55.77
39449;BME280;25151;45.566;9.382;2023-03-21T04:03:56;99894.66;;;18.95;55.75
39449;BME280;25151;45.566;9.382;2023-03-21T04:07:00;99895.00;;;18.97;55.74
39449;BME280;25151;45.566;9.382;2023-03-21T04:10:04;99887.50;;;18.94;55.84
39449;BME280;25151;45.566;9.382;2023-03-21T04:13:08;99885.81;;;18.96;55.99
39449;BME280;25151;45.566;9.382;2023-03-21T04:16:11;99885.47;;;18.94;55.81
39449;BME280;25151;45.566;9.382;2023-03-21T04:19:15;99897.44;;;18.95;55.83
39449;BME280;25151;45.566;9.382;2023-03-21T04:22:18;99888.28;;;18.94;55.79
39449;BME280;25151;45.566;9.382;2023-03-21T04:25:21;99893.50;;;18.92;55.81
39449;BME280;25151;45.566;9.382;2023-03-21T04:28:24;99889.84;;;18.95;55.95
39449;BME280;25151;45.566;9.382;2023-03-21T04:31:28;99883.91;;;18.93;55.88
39449;BME280;25151;45.566;9.382;2023-03-21T04:34:34;99885.47;;;18.94;55.76
39449;BME280;25151;45.566;9.382;2023-03-21T04:37:40;99893.09;;;18.94;55.78
39449;BME280;25151;45.566;9.382;2023-03-21T04:40:44;99893.50;;;18.92;55.83
39449;BME280;25151;45.566;9.382;2023-03-21T04:43:46;99893.88;;;18.94;55.90
39449;BME280;25151;45.566;9.382;2023-03-21T04:46:49;99887.56;;;18.90;55.79
39449;BME280;25151;45.566;9.382;2023-03-21T04:49:52;99886.34;;;18.91;55.66
39449;BME280;25151;45.566;9.382;2023-03-21T04:52:55;99889.91;;;18.91;55.73
39449;BME280;25151;45.566;9.382;2023-03-21T04:55:57;99894.72;;;18.91;55.78
39449;BME280;25151;45.566;9.382;2023-03-21T04:59:07;99903.03;;;18.95;55.93
39449;BME280;25151;45.566;9.382;2023-03-21T05:02:10;99906.28;;;18.93;55.66
39449;BME280;25151;45.566;9.382;2023-03-21T05:05:13;99906.69;;;18.91;55.82
39449;BME280;25151;45.566;9.382;2023-03-21T05:08:16;99901.53;;;18.90;55.90
39449;BME280;25151;45.566;9.382;2023-03-21T05:11:19;99911.84;;;18.93;55.88
39449;BME280;25151;45.566;9.382;2023-03-21T05:14:24;99902.78;;;18.89;55.73
39449;BME280;25151;45.566;9.382;2023-03-21T05:17:28;99900.41;;;18.87;55.75
39449;BME280;25151;45.566;9.382;2023-03-21T05:20:31;99906.78;;;18.88;55.79
39449;BME280;25151;45.566;9.382;2023-03-21T05:23:35;99902.78;;;18.89;55.81
39449;BME280;25151;45.566;9.382;2023-03-21T05:26:39;99901.19;;;18.88;55.78
39449;BME280;25151;45.566;9.382;2023-03-21T05:29:41;99903.63;;;18.86;55.83
39449;BME280;25151;45.566;9.382;2023-03-21T05:32:43;99901.19;;;18.88;55.79
39449;BME280;25151;45.566;9.382;2023-03-21T05:35:49;99903.63;;;18.86;55.75
39449;BME280;25151;45.566;9.382;2023-03-21T05:38:52;99903.63;;;18.86;55.77
39449;BME280;25151;45.566;9.382;2023-03-21T05:41:56;99902.06;;;18.85;55.68
39449;BME280;25151;45.566;9.382;2023-03-21T05:45:00;99915.53;;;18.90;55.82
39449;BME280;25151;45.566;9.382;2023-03-21T05:48:03;99907.56;;;18.88;55.78
39449;BME280;25151;45.566;9.382;2023-03-21T05:51:08;99913.13;;;18.88;55.77
39449;BME280;25151;45.566;9.382;2023-03-21T05:54:11;99910.47;;;18.85;55.81
39449;BME280;25151;45.566;9.382;2023-03-21T05:57:17;99912.03;;;18.86;55.71
39449;BME280;25151;45.566;9.382;2023-03-21T06:00:20;99916.03;;;18.85;55.77
39449;BME280;25151;45.566;9.382;2023-03-21T06:03:25;99911.31;;;18.82;55.75
39449;BME280;25151;45.566;9.382;2023-03-21T06:06:29;99912.03;;;18.86;55.86
39449;BME280;25151;45.566;9.382;2023-03-21T06:09:34;99917.94;;;18.88;55.87
39449;BME280;25151;45.566;9.382;2023-03-21T06:12:37;99902.94;;;18.82;55.72
39449;BME280;25151;45.566;9.382;2023-03-21T06:15:41;99904.16;;;18.81;55.71
39449;BME280;25151;45.566;9.382;2023-03-21T06:18:56;99913.25;;;18.85;55.68
39449;BME280;25151;45.566;9.382;2023-03-21T06:22:01;99917.59;;;18.86;55.85
39449;BME280;25151;45.566;9.382;2023-03-21T06:25:03;99914.03;;;18.85;55.85
39449;BME280;25151;45.566;9.382;2023-03-21T06:28:07;99908.44;;;18.85;55.69
39449;BME280;25151;45.566;9.382;2023-03-21T06:31:09;99905.66;;;18.85;55.83
39449;BME280;25151;45.566;9.382;2023-03-21T06:34:10;99914.66;;;18.93;55.62
39449;BME280;25151;45.566;9.382;2023-03-21T06:37:11;99910.63;;;18.94;55.78
39449;BME280;25151;45.566;9.382;2023-03-21T06:40:11;99921.81;;;18.94;55.86
39449;BME280;25151;45.566;9.382;2023-03-21T06:43:13;99915.78;;;18.96;55.71
39449;BME280;25151;45.566;9.382;2023-03-21T06:46:16;99922.50;;;18.98;55.79
39449;BME280;25151;45.566;9.382;2023-03-21T06:49:17;99921.63;;;19.01;55.69
39449;BME280;25151;45.566;9.382;2023-03-21T06:52:18;99927.94;;;19.05;55.79
39449;BME280;25151;45.566;9.382;2023-03-21T06:55:18;99923.03;;;19.09;55.65
39449;BME280;25151;45.566;9.382;2023-03-21T06:58:25;99923.75;;;19.13;55.63
39449;BME280;25151;45.566;9.382;2023-03-21T07:01:26;99925.66;;;19.16;55.55
39449;BME280;25151;45.566;9.382;2023-03-21T07:04:30;99929.94;;;19.21;55.64
39449;BME280;25151;45.566;9.382;2023-03-21T07:07:31;99940.16;;;19.28;55.52
39449;BME280;25151;45.566;9.382;2023-03-21T07:10:32;99940.75;;;19.35;55.43
39449;BME280;25151;45.566;9.382;2023-03-21T07:13:33;99940.25;;;19.40;55.48
39449;BME280;25151;45.566;9.382;2023-03-21T07:16:37;99935.69;;;19.47;55.38
39449;BME280;25151;45.566;9.382;2023-03-21T07:19:38;99941.88;;;19.54;55.20
39449;BME280;25151;45.566;9.382;2023-03-21T07:22:39;99937.34;;;19.60;55.42
39449;BME280;25151;45.566;9.382;2023-03-21T07:25:40;99940.75;;;19.68;55.15
39449;BME280;25151;45.566;9.382;2023-03-21T07:28:40;99935.75;;;19.76;55.29
39449;BME280;25151;45.566;9.382;2023-03-21T07:31:41;99942.06;;;19.80;55.26
39449;BME280;25151;45.566;9.382;2023-03-21T07:34:42;99942.63;;;19.87;55.06
39449;BME280;25151;45.566;9.382;2023-03-21T07:37:43;99940.09;;;19.93;54.93
39449;BME280;25151;45.566;9.382;2023-03-21T07:40:44;99939.88;;;20.00;54.96
39449;BME280;25151;45.566;9.382;2023-03-21T07:43:45;99939.78;;;20.04;54.74
39449;BME280;25151;45.566;9.382;2023-03-21T07:46:48;99946.06;;;20.08;55.14
39449;BME280;25151;45.566;9.382;2023-03-21T07:49:48;99946.41;;;20.10;54.72
39449;BME280;25151;45.566;9.382;2023-03-21T07:52:50;99948.22;;;20.17;54.63
39449;BME280;25151;45.566;9.382;2023-03-21T07:55:53;99953.38;;;20.18;54.60
39449;BME280;25151;45.566;9.382;2023-03-21T07:58:56;99948.56;;;20.19;54.80
39449;BME280;25151;45.566;9.382;2023-03-21T08:01:59;99954.16;;;20.19;54.68
39449;BME280;25151;45.566;9.382;2023-03-21T08:05:00;99954.41;;;20.24;54.51
39449;BME280;25151;45.566;9.382;2023-03-21T08:08:03;99964.72;;;20.27;54.49
39449;BME280;25151;45.566;9.382;2023-03-21T08:11:18;99952.72;;;20.27;54.47
39449;BME280;25151;45.566;9.382;2023-03-21T08:14:23;99959.47;;;20.29;54.31
39449;BME280;25151;45.566;9.382;2023-03-21T08:17:25;99954.31;;;20.28;54.26
39449;BME280;25151;45.566;9.382;2023-03-21T08:20:28;99961.03;;;20.30;54.40
39449;BME280;25151;45.566;9.382;2023-03-21T08:23:30;99958.22;;;20.30;54.56
39449;BME280;25151;45.566;9.382;2023-03-21T08:26:33;99959.00;;;20.31;54.46
39449;BME280;25151;45.566;9.382;2023-03-21T08:29:34;99953.06;;;20.29;54.47
39449;BME280;25151;45.566;9.382;2023-03-21T08:32:42;99948.25;;;20.29;54.27
39449;BME280;25151;45.566;9.382;2023-03-21T08:35:46;99947.81;;;20.31;54.47
39449;BME280;25151;45.566;9.382;2023-03-21T08:38:53;99946.91;;;20.34;54.22
39449;BME280;25151;45.566;9.382;2023-03-21T08:42:05;99933.38;;;20.32;54.23
39449;BME280;25151;45.566;9.382;2023-03-21T08:45:07;99946.03;;;20.37;54.21
39449;BME280;25151;45.566;9.382;2023-03-21T08:48:09;99939.19;;;20.38;54.23
39449;BME280;25151;45.566;9.382;2023-03-21T08:51:13;99934.72;;;20.41;54.49
39449;BME280;25151;45.566;9.382;2023-03-21T08:54:22;99934.63;;;20.44;54.18
39449;BME280;25151;45.566;9.382;2023-03-21T08:57:25;99929.34;;;20.46;54.02
39449;BME280;25151;45.566;9.382;2023-03-21T09:00:28;99941.94;;;20.54;53.98
39449;BME280;25151;45.566;9.382;2023-03-21T09:03:32;99940.72;;;20.55;54.25
39449;BME280;25151;45.566;9.382;2023-03-21T09:06:40;99942.19;;;20.60;54.22
39449;BME280;25151;45.566;9.382;2023-03-21T09:09:45;99942.19;;;20.60;53.84
39449;BME280;25151;45.566;9.382;2023-03-21T09:12:52;99940.50;;;20.62;53.93
39449;BME280;25151;45.566;9.382;2023-03-21T09:15:54;99946.44;;;20.65;53.95
39449;BME280;25151;45.566;9.382;2023-03-21T09:19:01;99938.94;;;20.61;53.76
39449;BME280;25151;45.566;9.382;2023-03-21T09:22:05;99943.97;;;20.67;53.86
39449;BME280;25151;45.566;9.382;2023-03-21T09:25:15;99941.97;;;20.67;53.72
39449;BME280;25151;45.566;9.382;2023-03-21T09:28:18;99941.63;;;20.65;53.56
39449;BME280;25151;45.566;9.382;2023-03-21T09:31:30;99948.38;;;20.68;53.79
39449;BME280;25151;45.566;9.382;2023-03-21T09:34:34;99946.34;;;20.68;53.67
39449;BME280;25151;45.566;9.382;2023-03-21T09:37:41;99941.16;;;20.67;53.51
39449;BME280;25151;45.566;9.382;2023-03-21T09:47:25;99941.97;;;20.67;53.69
39449;BME280;25151;45.566;9.382;2023-03-21T09:50:34;99941.06;;;20.70;53.34
39449;BME280;25151;45.566;9.382;2023-03-21T09:53:40;99941.84;;;20.71;53.33
39449;BME280;25151;45.566;9.382;2023-03-21T09:56:44;99937.94;;;20.68;53.33
39449;BME280;25151;45.566;9.382;2023-03-21T09:59:47;99931.88;;;20.70;53.52
39449;BME280;25151;45.566;9.382;2023-03-21T10:02:55;99934.69;;;20.70;53.53
39449;BME280;25151;45.566;9.382;2023-03-21T10:06:03;99927.50;;;20.69;53.45
39449;BME280;25151;45.566;9.382;2023-03-21T10:09:15;99933.00;;;20.72;53.44
39449;BME280;25151;45.566;9.382;2023-03-21T10:12:24;99936.59;;;20.73;53.29
39449;BME280;25151;45.566;9.382;2023-03-21T10:15:31;99938.59;;;20.72;53.24
39449;BME280;25151;45.566;9.382;2023-03-21T10:18:33;99930.97;;;20.73;53.33
39449;BME280;25151;45.566;9.382;2023-03-21T10:21:38;99930.63;;;20.71;53.20
39449;BME280;25151;45.566;9.382;2023-03-21T10:24:45;99925.50;;;20.69;53.31
39449;BME280;25151;45.566;9.382;2023-03-21T10:27:49;99932.22;;;20.72;53.37
39449;BME280;25151;45.566;9.382;2023-03-21T10:30:58;99930.97;;;20.73;53.32
39449;BME280;25151;45.566;9.382;2023-03-21T10:34:19;99934.56;;;20.73;53.37
39449;BME280;25151;45.566;9.382;2023-03-21T10:37:24;99924.59;;;20.72;53.54
39449;BME280;25151;45.566;9.382;2023-03-21T10:40:26;99936.13;;;20.74;53.27
39449;BME280;25151;45.566;9.382;2023-03-21T10:46:35;99920.00;;;20.78;53.53
39449;BME280;25151;45.566;9.382;2023-03-21T10:49:37;99918.00;;;20.79;53.25
39449;BME280;25151;45.566;9.382;2023-03-21T10:52:48;99917.19;;;20.78;53.61
39449;BME280;25151;45.566;9.382;2023-03-21T10:55:53;99916.75;;;20.80;53.52
39449;BME280;25151;45.566;9.382;2023-03-21T10:58:58;99912.72;;;20.81;53.56
39449;BME280;25151;45.566;9.382;2023-03-21T11:02:03;99914.28;;;20.82;53.36
39449;BME280;25151;45.566;9.382;2023-03-21T11:05:36;99909.13;;;20.80;53.76
39449;BME280;25151;45.566;9.382;2023-03-21T11:08:46;99915.97;;;20.79;53.72
39449;BME280;25151;45.566;9.382;2023-03-21T11:12:00;99917.53;;;20.80;53.47
39449;BME280;25151;45.566;9.382;2023-03-21T11:15:33;99916.75;;;20.80;53.74
39449;BME280;25151;45.566;9.382;2023-03-21T11:18:43;99913.16;;;20.79;53.64
39449;BME280;25151;45.566;9.382;2023-03-21T11:21:45;99913.94;;;20.80;53.69
39449;BME280;25151;45.566;9.382;2023-03-21T11:24:52;99904.75;;;20.79;53.62
39449;BME280;25151;45.566;9.382;2023-03-21T11:27:54;99903.97;;;20.79;53.92
39449;BME280;25151;45.566;9.382;2023-03-21T11:30:58;99895.22;;;20.77;54.00
39449;BME280;25151;45.566;9.382;2023-03-21T11:34:05;99900.84;;;20.77;53.93
39449;BME280;25151;45.566;9.382;2023-03-21T11:37:18;99896.47;;;20.76;53.92
39449;BME280;25151;45.566;9.382;2023-03-21T11:40:33;99892.44;;;20.77;54.15
39449;BME280;25151;45.566;9.382;2023-03-21T11:43:36;99885.56;;;20.78;54.03
39449;BME280;25151;45.566;9.382;2023-03-21T11:46:39;99884.03;;;20.77;54.12
39449;BME280;25151;45.566;9.382;2023-03-21T11:49:40;99878.41;;;20.77;53.92
39449;BME280;25151;45.566;9.382;2023-03-21T12:06:29;99852.97;;;20.84;54.29
39449;BME280;25151;45.566;9.382;2023-03-21T12:09:43;99841.41;;;20.82;54.45
39449;BME280;25151;45.566;9.382;2023-03-21T12:26:50;99819.22;;;20.87;54.27
39449;BME280;25151;45.566;9.382;2023-03-21T12:30:06;99811.59;;;20.88;54.59
39449;BME280;25151;45.566;9.382;2023-03-21T12:33:30;99809.09;;;20.90;54.47
39449;BME280;25151;45.566;9.382;2023-03-21T12:40:25;99799.59;;;20.87;54.37
39449;BME280;25151;45.566;9.382;2023-03-21T12:43:45;99787.50;;;20.91;54.60
39449;BME280;25151;45.566;9.382;2023-03-21T12:46:59;99782.00;;;20.87;54.77
39449;BME280;25151;45.566;9.382;2023-03-21T12:54:02;99770.78;;;20.87;54.51
39449;BME280;25151;45.566;9.382;2023-03-21T12:57:22;99772.25;;;20.92;54.71
39449;BME280;25151;45.566;9.382;2023-03-21T13:01:04;99769.44;;;20.92;54.46
39449;BME280;25151;45.566;9.382;2023-03-21T13:07:39;99753.41;;;20.92;54.68
39449;BME280;25151;45.566;9.382;2023-03-21T13:10:44;99741.84;;;20.90;54.57
39449;BME280;25151;45.566;9.382;2023-03-21T13:17:05;99736.22;;;20.90;54.35
39449;BME280;25151;45.566;9.382;2023-03-21T13:20:23;99733.56;;;20.86;54.41
39449;BME280;25151;45.566;9.382;2023-03-21T13:23:34;99731.22;;;20.85;54.42
39449;BME280;25151;45.566;9.382;2023-03-21T13:26:42;99732.47;;;20.84;54.76
39449;BME280;25151;45.566;9.382;2023-03-21T13:29:53;99726.84;;;20.84;54.51
39449;BME280;25151;45.566;9.382;2023-03-21T13:33:27;99724.38;;;20.86;54.67
39449;BME280;25151;45.566;9.382;2023-03-21T13:36:30;99716.53;;;20.81;54.50
39449;BME280;25151;45.566;9.382;2023-03-21T13:39:42;99718.75;;;20.86;54.75
39449;BME280;25151;45.566;9.382;2023-03-21T13:42:51;99716.41;;;20.84;54.63
39449;BME280;25151;45.566;9.382;2023-03-21T13:46:33;99713.44;;;20.79;54.47
39449;BME280;25151;45.566;9.382;2023-03-21T13:49:38;99713.44;;;20.79;54.70
39449;BME280;25151;45.566;9.382;2023-03-21T13:59:41;99693.81;;;20.79;54.60
39449;BME280;25151;45.566;9.382;2023-03-21T14:02:56;99690.19;;;20.78;54.94
39449;BME280;25151;45.566;9.382;2023-03-21T14:06:00;99685.53;;;20.75;54.73
39449;BME280;25151;45.566;9.382;2023-03-21T14:09:04;99679.16;;;20.75;54.74
39449;BME280;25151;45.566;9.382;2023-03-21T14:12:19;99682.72;;;20.75;54.90
39449;BME280;25151;45.566;9.382;2023-03-21T14:15:46;99676.66;;;20.77;54.61
39449;BME280;25151;45.566;9.382;2023-03-21T14:18:58;99674.63;;;20.77;54.82
39449;BME280;25151;45.566;9.382;2023-03-21T14:22:01;99675.41;;;20.78;54.63
39449;BME280;25151;45.566;9.382;2023-03-21T14:25:16;99672.59;;;20.78;54.67
39449;BME280;25151;45.566;9.382;2023-03-21T14:28:26;99664.19;;;20.78;54.94
39449;BME280;25151;45.566;9.382;2023-03-21T14:31:30;99653.78;;;20.78;54.97
39449;BME280;25151;45.566;9.382;2023-03-21T14:34:34;99657.38;;;20.79;54.64
39449;BME280;25151;45.566;9.382;2023-03-21T14:37:41;99654.56;;;20.79;54.92
39449;BME280;25151;45.566;9.382;2023-03-21T14:40:48;99645.38;;;20.78;55.16
39449;BME280;25151;45.566;9.382;2023-03-21T14:44:02;99643.38;;;20.79;54.96
39449;BME280;25151;45.566;9.382;2023-03-21T14:47:23;99639.44;;;20.76;54.95
39449;BME280;25151;45.566;9.382;2023-03-21T14:50:35;99640.69;;;20.75;54.73
39449;BME280;25151;45.566;9.382;2023-03-21T14:53:39;99634.31;;;20.75;55.12
39449;BME280;25151;45.566;9.382;2023-03-21T14:56:52;99633.97;;;20.73;55.12
39449;BME280;25151;45.566;9.382;2023-03-21T14:59:58;99632.41;;;20.72;54.82
39449;BME280;25151;45.566;9.382;2023-03-21T15:03:01;99626.47;;;20.70;54.82
39449;BME280;25151;45.566;9.382;2023-03-21T15:06:02;99624.91;;;20.69;54.97
39449;BME280;25151;45.566;9.382;2023-03-21T15:09:04;99618.84;;;20.70;54.80
39449;BME280;25151;45.566;9.382;2023-03-21T15:12:07;99626.16;;;20.68;54.99
39449;BME280;25151;45.566;9.382;2023-03-21T15:15:12;99619.31;;;20.69;55.11
39449;BME280;25151;45.566;9.382;2023-03-21T15:18:24;99609.78;;;20.66;54.79
39449;BME280;25151;45.566;9.382;2023-03-21T15:21:31;99603.41;;;20.66;54.77
39449;BME280;25151;45.566;9.382;2023-03-21T15:24:40;99609.13;;;20.62;54.54
39449;BME280;25151;45.566;9.382;2023-03-21T15:27:42;99609.91;;;20.62;54.98
39449;BME280;25151;45.566;9.382;2023-03-21T15:30:49;99620.31;;;20.62;54.89
39449;BME280;25151;45.566;9.382;2023-03-21T15:33:52;99617.22;;;20.60;54.78
39449;BME280;25151;45.566;9.382;2023-03-21T15:37:00;99606.78;;;20.60;54.94
39449;BME280;25151;45.566;9.382;2023-03-21T15:40:19;99612.03;;;20.58;54.65
39449;BME280;25151;45.566;9.382;2023-03-21T15:43:20;99615.66;;;20.59;54.84
39449;BME280;25151;45.566;9.382;2023-03-21T15:46:40;99614.84;;;20.58;54.87
39449;BME280;25151;45.566;9.382;2023-03-21T15:49:41;99619.69;;;20.58;54.82
39449;BME280;25151;45.566;9.382;2023-03-21T15:52:42;99617.34;;;20.56;54.75
39449;BME280;25151;45.566;9.382;2023-03-21T15:55:51;99605.34;;;20.56;55.05
39449;BME280;25151;45.566;9.382;2023-03-21T15:58:53;99610.19;;;20.55;54.68
39449;BME280;25151;45.566;9.382;2023-03-21T16:01:54;99609.06;;;20.53;54.96
39449;BME280;25151;45.566;9.382;2023-03-21T16:04:57;99608.28;;;20.52;54.82
39449;BME280;25151;45.566;9.382;2023-03-21T16:08:17;99605.13;;;20.50;54.81
39449;BME280;25151;45.566;9.382;2023-03-21T16:14:23;99592.81;;;20.48;55.11
39449;BME280;25151;45.566;9.382;2023-03-21T16:17:34;99604.78;;;20.48;54.99
39449;BME280;25151;45.566;9.382;2023-03-21T16:20:42;99597.63;;;20.47;55.05
39449;BME280;25151;45.566;9.382;2023-03-21T16:23:45;99593.25;;;20.46;54.98
39449;BME280;25151;45.566;9.382;2023-03-21T16:26:47;99582.50;;;20.45;54.87
39449;BME280;25151;45.566;9.382;2023-03-21T16:29:51;99578.47;;;20.46;55.00
39449;BME280;25151;45.566;9.382;2023-03-21T16:32:52;99577.69;;;20.45;54.94
39449;BME280;25151;45.566;9.382;2023-03-21T16:35:53;99580.50;;;20.45;54.69
39449;BME280;25151;45.566;9.382;2023-03-21T16:38:58;99578.94;;;20.44;54.92
39449;BME280;25151;45.566;9.382;2023-03-21T16:41:59;99583.28;;;20.45;55.03
39449;BME280;25151;45.566;9.382;2023-03-21T16:45:00;99586.56;;;20.44;55.03
39449;BME280;25151;45.566;9.382;2023-03-21T16:48:02;99590.13;;;20.44;54.75
39449;BME280;25151;45.566;9.382;2023-03-21T16:51:03;99594.19;;;20.43;54.91
39449;BME280;25151;45.566;9.382;2023-03-21T16:54:04;99590.56;;;20.43;55.17
39449;BME280;25151;45.566;9.382;2023-03-21T16:57:08;99593.38;;;20.43;55.07
39449;BME280;25151;45.566;9.382;2023-03-21T17:00:21;99594.59;;;20.42;55.34
39449;BME280;25151;45.566;9.382;2023-03-21T17:03:22;99584.31;;;20.38;55.56
39449;BME280;25151;45.566;9.382;2023-03-21T17:06:26;99590.25;;;20.41;55.78
39449;BME280;25151;45.566;9.382;2023-03-21T17:09:27;99598.97;;;20.43;55.99
39449;BME280;25151;45.566;9.382;2023-03-21T17:12:28;99592.28;;;20.40;56.07
39449;BME280;25151;45.566;9.382;2023-03-21T17:15:29;99596.28;;;20.39;55.72
39449;BME280;25151;45.566;9.382;2023-03-21T17:18:30;99592.28;;;20.40;55.97
39449;BME280;25151;45.566;9.382;2023-03-21T17:21:31;99593.94;;;20.37;55.95
39449;BME280;25151;45.566;9.382;2023-03-21T17:24:35;99598.44;;;20.35;56.15
39449;BME280;25151;45.566;9.382;2023-03-21T17:27:36;99592.41;;;20.36;55.98
39449;BME280;25151;45.566;9.382;2023-03-21T17:30:36;99599.25;;;20.35;55.93
39449;BME280;25151;45.566;9.382;2023-03-21T17:33:39;99612.00;;;20.36;56.05
39449;BME280;25151;45.566;9.382;2023-03-21T17:36:41;99606.06;;;20.34;56.05
39449;BME280;25151;45.566;9.382;2023-03-21T17:39:42;99607.28;;;20.33;55.82
39449;BME280;25151;45.566;9.382;2023-03-21T17:42:44;99604.97;;;20.32;55.96
39449;BME280;25151;45.566;9.382;2023-03-21T17:45:45;99600.56;;;20.31;56.03
39449;BME280;25151;45.566;9.382;2023-03-21T17:48:47;99599.00;;;20.30;56.10
39449;BME280;25151;45.566;9.382;2023-03-21T17:51:48;99598.25;;;20.29;56.11
39449;BME280;25151;45.566;9.382;2023-03-21T17:54:49;99596.69;;;20.28;56.16
39449;BME280;25151;45.566;9.382;2023-03-21T17:57:50;99595.91;;;20.28;55.97
39449;BME280;25151;45.566;9.382;2023-03-21T18:01:00;99595.91;;;20.28;56.20
39449;BME280;25151;45.566;9.382;2023-03-21T18:04:01;99597.13;;;20.27;56.09